Time;durP1;ratioP1;P1;durP2;ratioP2;P2;SDS_P1;SDS_P2;PMS_P1;PMS_P2;Temp;Humidity;BMP_temperature;BMP_pressure;BME280_temperature;BME280_humidity;BME280_pressure;Samples;Min_cycle;Max_cycle;Signal;HPM_P1;HPM_P2
2022/08/24 00:02:09;;;;;;;1.25;1.15;;;24.00;49.80;;;;;;940028;149;27532;-75
2022/08/24 00:04:36;;;;;;;2.20;1.00;;;24.00;49.70;;;;;;939291;148;27383;-76
2022/08/24 00:07:02;;;;;;;1.85;1.60;;;24.00;49.70;;;;;;938431;149;27399;-76
2022/08/24 00:09:29;;;;;;;0.78;0.78;;;24.00;49.70;;;;;;940589;149;28619;-75
2022/08/24 00:11:56;;;;;;;1.77;1.25;;;24.00;49.70;;;;;;938068;149;27372;-76
2022/08/24 00:14:22;;;;;;;1.77;1.17;;;24.00;49.80;;;;;;938645;149;27458;-75
2022/08/24 00:16:49;;;;;;;1.07;1.07;;;23.90;49.80;;;;;;938510;149;27436;-77
2022/08/24 00:19:15;;;;;;;2.85;1.30;;;23.90;49.90;;;;;;938991;149;27403;-75
2022/08/24 00:21:42;;;;;;;1.82;1.40;;;23.90;50.00;;;;;;940605;149;27477;-75
2022/08/24 00:24:09;;;;;;;0.82;0.82;;;23.80;50.00;;;;;;937869;149;27344;-75
2022/08/24 00:26:35;;;;;;;1.10;1.00;;;23.80;50.00;;;;;;937911;149;27330;-76
2022/08/24 00:29:02;;;;;;;2.33;1.20;;;23.80;50.20;;;;;;938323;149;27344;-76
2022/08/24 00:31:28;;;;;;;1.35;0.95;;;23.70;50.30;;;;;;938921;149;27515;-75
2022/08/24 00:33:55;;;;;;;1.35;1.10;;;23.60;50.30;;;;;;940714;149;27399;-75
2022/08/24 00:36:22;;;;;;;1.42;1.10;;;23.60;50.50;;;;;;940219;149;27354;-75
2022/08/24 00:38:48;;;;;;;1.15;1.05;;;23.50;50.50;;;;;;938299;149;27845;-76
2022/08/24 00:41:15;;;;;;;1.42;1.30;;;23.50;50.60;;;;;;936438;149;27372;-76
2022/08/24 00:43:44;;;;;;;1.12;1.02;;;23.40;50.70;;;;;;938654;149;27387;-77
2022/08/24 00:46:13;;;;;;;1.32;1.22;;;23.30;50.70;;;;;;932425;149;27381;-75
2022/08/24 00:48:39;;;;;;;1.30;1.07;;;23.30;50.80;;;;;;936243;149;27364;-76
2022/08/24 00:51:06;;;;;;;1.37;1.12;;;23.20;50.90;;;;;;939822;149;27352;-76
2022/08/24 00:53:35;;;;;;;1.30;1.20;;;23.20;50.90;;;;;;937827;149;27368;-75
2022/08/24 00:56:02;;;;;;;1.42;1.30;;;23.10;51.00;;;;;;938419;149;27336;-75
2022/08/24 00:58:28;;;;;;;1.90;1.20;;;23.00;51.10;;;;;;937330;149;27342;-75
2022/08/24 01:00:58;;;;;;;1.67;1.30;;;22.90;51.20;;;;;;939526;149;27794;-77
2022/08/24 01:03:25;;;;;;;2.55;1.20;;;22.80;51.40;;;;;;941390;149;27503;-75
2022/08/24 01:05:51;;;;;;;1.20;1.10;;;22.70;51.50;;;;;;938524;149;27298;-75
2022/08/24 01:08:19;;;;;;;1.50;1.25;;;22.70;51.70;;;;;;938302;149;27706;-75
2022/08/24 01:10:44;;;;;;;1.40;1.30;;;22.60;51.90;;;;;;940732;149;27346;-75
2022/08/24 01:13:11;;;;;;;1.40;1.30;;;22.50;52.60;;;;;;939065;149;27378;-76
2022/08/24 01:15:37;;;;;;;1.42;1.32;;;22.40;52.20;;;;;;936918;149;27906;-76
2022/08/24 01:20:51;;;;;;;1.30;1.17;;;22.30;52.40;;;;;;939491;149;27352;-75
2022/08/24 01:23:36;;;;;;;1.82;1.30;;;22.30;52.50;;;;;;938755;149;27326;-76
2022/08/24 01:26:02;;;;;;;2.12;1.50;;;22.20;52.70;;;;;;937728;149;27426;-77
2022/08/24 01:28:29;;;;;;;1.92;1.57;;;22.20;52.80;;;;;;937053;149;27395;-75
2022/08/24 01:30:56;;;;;;;2.83;1.27;;;22.10;53.00;;;;;;940055;149;27326;-75
2022/08/24 01:33:22;;;;;;;1.22;1.15;;;22.10;53.10;;;;;;938506;149;27336;-75
2022/08/24 01:35:49;;;;;;;1.52;1.40;;;22.10;53.30;;;;;;936012;149;27354;-75
2022/08/24 01:38:16;;;;;;;2.25;1.02;;;22.10;53.40;;;;;;937235;149;27480;-75
2022/08/24 01:40:42;;;;;;;1.27;1.22;;;22.00;53.60;;;;;;936812;149;27510;-75
2022/08/24 01:43:08;;;;;;;1.30;1.20;;;22.00;53.70;;;;;;936387;149;27309;-75
2022/08/24 01:45:36;;;;;;;1.17;1.17;;;22.00;53.80;;;;;;938828;149;27362;-75
2022/08/24 01:48:02;;;;;;;1.37;1.27;;;22.00;53.90;;;;;;937116;149;27356;-77
2022/08/24 01:50:28;;;;;;;1.22;1.12;;;22.00;54.10;;;;;;936748;149;27419;-76
2022/08/24 01:52:57;;;;;;;2.05;1.30;;;22.00;54.10;;;;;;938012;149;27547;-75
2022/08/24 01:55:22;;;;;;;1.60;1.50;;;22.00;54.20;;;;;;938461;149;27346;-75
2022/08/24 01:57:48;;;;;;;1.55;1.30;;;21.90;54.30;;;;;;939318;149;27412;-75
2022/08/24 02:00:15;;;;;;;1.30;1.20;;;21.90;54.50;;;;;;937152;149;27358;-76
2022/08/24 02:02:41;;;;;;;1.12;1.12;;;21.90;54.50;;;;;;940323;149;27358;-77
2022/08/24 02:05:08;;;;;;;1.45;1.15;;;21.90;54.60;;;;;;938001;149;27486;-75
2022/08/24 02:07:34;;;;;;;1.30;1.20;;;21.80;54.70;;;;;;938185;149;27355;-75
2022/08/24 02:10:01;;;;;;;1.35;1.25;;;21.80;54.80;;;;;;937740;149;27379;-75
2022/08/24 02:12:28;;;;;;;1.12;1.10;;;21.80;54.90;;;;;;937016;149;27375;-76
2022/08/24 02:14:54;;;;;;;1.22;1.00;;;21.80;55.00;;;;;;935384;149;27437;-75
2022/08/24 02:17:21;;;;;;;2.20;1.00;;;21.70;55.10;;;;;;938744;149;27407;-77
2022/08/24 02:19:47;;;;;;;1.55;1.45;;;21.70;55.10;;;;;;937525;149;27465;-75
2022/08/24 02:22:14;;;;;;;1.00;1.00;;;21.60;55.10;;;;;;938635;149;27438;-76
2022/08/24 02:24:41;;;;;;;1.37;1.10;;;21.60;55.20;;;;;;940030;149;27863;-77
2022/08/24 02:27:07;;;;;;;1.35;1.25;;;21.50;55.30;;;;;;936933;149;28159;-75
2022/08/24 02:29:34;;;;;;;1.07;1.07;;;21.50;55.40;;;;;;939413;149;27897;-75
2022/08/24 02:32:00;;;;;;;1.40;1.30;;;21.50;55.50;;;;;;939265;149;27361;-75
2022/08/24 02:34:27;;;;;;;1.85;1.20;;;21.40;55.60;;;;;;938471;149;27453;-76
2022/08/24 02:36:53;;;;;;;1.47;1.37;;;21.30;55.70;;;;;;939507;149;28053;-77
2022/08/24 02:39:20;;;;;;;1.20;1.20;;;21.20;55.90;;;;;;939692;149;27373;-76
2022/08/24 02:41:47;;;;;;;1.30;1.20;;;21.20;56.00;;;;;;937665;149;27417;-77
2022/08/24 02:44:13;;;;;;;1.52;1.40;;;21.20;56.10;;;;;;941973;149;27345;-77
2022/08/24 02:46:40;;;;;;;1.67;1.57;;;21.10;56.10;;;;;;939128;149;27370;-76
2022/08/24 02:49:07;;;;;;;2.55;1.10;;;21.10;56.20;;;;;;939527;149;27356;-77
2022/08/24 02:51:33;;;;;;;1.15;1.05;;;21.00;56.30;;;;;;939079;149;27308;-76
2022/08/24 02:54:00;;;;;;;1.10;1.10;;;21.00;56.50;;;;;;937502;149;27394;-77
2022/08/24 02:56:28;;;;;;;2.75;1.10;;;21.00;56.60;;;;;;937908;149;27699;-77
2022/08/24 02:58:53;;;;;;;1.30;1.20;;;20.90;56.60;;;;;;936060;149;27309;-76
2022/08/24 03:01:19;;;;;;;0.98;0.98;;;20.90;56.70;;;;;;936962;149;27243;-76
2022/08/24 03:03:46;;;;;;;2.27;1.67;;;20.80;56.80;;;;;;937027;149;27291;-76
2022/08/24 03:06:12;;;;;;;1.52;1.42;;;20.80;57.10;;;;;;936787;149;27264;-76
2022/08/24 03:08:39;;;;;;;1.45;1.35;;;20.70;57.10;;;;;;937215;149;27281;-76
2022/08/24 03:11:07;;;;;;;2.37;1.60;;;20.70;57.30;;;;;;935500;149;27368;-76
2022/08/24 03:13:32;;;;;;;2.42;1.45;;;20.60;57.40;;;;;;935888;149;27239;-76
2022/08/24 03:15:59;;;;;;;1.72;1.32;;;20.60;57.50;;;;;;936268;149;27309;-77
2022/08/24 03:18:25;;;;;;;1.50;1.30;;;20.50;57.50;;;;;;936094;149;27400;-76
2022/08/24 03:20:52;;;;;;;1.40;1.30;;;20.40;57.60;;;;;;936379;149;27295;-76
2022/08/24 03:23:19;;;;;;;1.40;1.30;;;20.40;57.80;;;;;;936449;149;28415;-76
2022/08/24 03:25:45;;;;;;;1.50;1.40;;;20.40;58.10;;;;;;937911;149;27241;-77
2022/08/24 03:28:12;;;;;;;1.57;1.47;;;20.30;58.10;;;;;;935644;148;27254;-76
2022/08/24 03:30:38;;;;;;;1.82;1.45;;;20.30;58.30;;;;;;936415;149;27248;-77
2022/08/24 03:33:05;;;;;;;1.60;1.50;;;20.20;58.30;;;;;;936817;149;27530;-76
2022/08/24 03:35:32;;;;;;;2.75;1.70;;;20.20;58.40;;;;;;935686;149;27391;-76
2022/08/24 03:37:58;;;;;;;1.85;1.75;;;20.10;58.50;;;;;;937759;149;27239;-77
2022/08/24 03:40:25;;;;;;;1.55;1.45;;;20.10;58.50;;;;;;935071;148;27806;-77
2022/08/24 03:42:51;;;;;;;1.50;1.40;;;20.00;58.60;;;;;;935962;149;27381;-76
2022/08/24 03:45:18;;;;;;;1.67;1.40;;;20.00;58.70;;;;;;934926;149;27767;-76
2022/08/24 03:47:45;;;;;;;3.55;2.15;;;19.90;58.90;;;;;;936201;149;27376;-77
2022/08/24 03:50:11;;;;;;;2.70;1.62;;;19.90;59.00;;;;;;934538;149;27290;-77
2022/08/24 03:52:38;;;;;;;2.62;1.65;;;19.80;59.10;;;;;;935260;149;27262;-77
2022/08/24 03:55:04;;;;;;;2.30;1.35;;;19.80;59.30;;;;;;936460;149;27342;-77
2022/08/24 03:57:31;;;;;;;2.33;1.70;;;19.80;59.50;;;;;;934232;149;27269;-77
2022/08/24 03:59:57;;;;;;;1.82;1.72;;;19.70;59.60;;;;;;938519;149;27485;-76
2022/08/24 04:02:25;;;;;;;1.87;1.77;;;19.70;59.80;;;;;;936954;149;27376;-77
2022/08/24 04:04:51;;;;;;;3.02;1.90;;;19.70;60.00;;;;;;936016;149;27302;-77
2022/08/24 04:07:17;;;;;;;1.70;1.60;;;19.60;60.00;;;;;;937550;149;27338;-76
2022/08/24 04:09:44;;;;;;;1.67;1.57;;;19.60;60.30;;;;;;939081;149;27355;-76
2022/08/24 04:12:10;;;;;;;1.57;1.47;;;19.50;60.40;;;;;;938388;149;27503;-77
2022/08/24 04:14:38;;;;;;;2.00;1.80;;;19.50;60.60;;;;;;941298;149;28058;-77
2022/08/24 04:17:04;;;;;;;2.22;1.82;;;19.50;60.70;;;;;;937763;149;27442;-76
2022/08/24 04:19:30;;;;;;;2.85;1.50;;;19.50;60.90;;;;;;939796;149;27723;-77
2022/08/24 04:21:57;;;;;;;1.80;1.70;;;19.50;60.90;;;;;;937408;149;27380;-76
2022/08/24 04:24:23;;;;;;;1.60;1.50;;;19.50;61.10;;;;;;938265;149;27386;-76
2022/08/24 04:26:50;;;;;;;1.60;1.50;;;19.50;61.20;;;;;;937643;149;27818;-77
2022/08/24 04:29:17;;;;;;;1.50;1.40;;;19.50;61.30;;;;;;939162;149;27348;-77
2022/08/24 04:31:43;;;;;;;1.92;1.52;;;19.50;61.40;;;;;;937320;149;27850;-77
2022/08/24 04:34:10;;;;;;;1.72;1.62;;;19.50;61.40;;;;;;939411;149;27426;-76
2022/08/24 04:36:36;;;;;;;2.40;1.52;;;19.50;61.60;;;;;;937330;149;27332;-76
2022/08/24 04:39:04;;;;;;;3.77;1.52;;;19.50;61.70;;;;;;936693;149;27391;-76
2022/08/24 04:41:29;;;;;;;1.87;1.77;;;19.50;61.70;;;;;;938124;149;27773;-78
2022/08/24 04:43:56;;;;;;;1.77;1.52;;;19.60;61.90;;;;;;937744;149;27362;-77
2022/08/24 04:46:23;;;;;;;2.22;2.02;;;19.60;61.90;;;;;;938262;149;27348;-77
2022/08/24 04:48:49;;;;;;;1.87;1.77;;;19.60;62.10;;;;;;939719;149;27426;-76
2022/08/24 04:51:16;;;;;;;3.25;1.80;;;19.70;62.20;;;;;;938945;149;27372;-77
2022/08/24 04:53:42;;;;;;;2.17;1.62;;;19.70;63.10;;;;;;936767;149;27443;-77
2022/08/24 04:56:10;;;;;;;2.08;1.92;;;19.70;62.40;;;;;;939897;149;27303;-77
2022/08/24 04:58:36;;;;;;;1.75;1.65;;;19.80;62.50;;;;;;938251;149;27447;-77
2022/08/24 05:01:03;;;;;;;1.57;1.47;;;19.90;61.80;;;;;;936479;149;27620;-76
2022/08/24 05:03:29;;;;;;;2.72;1.98;;;20.00;62.90;;;;;;935564;149;28457;-76
2022/08/24 05:05:55;;;;;;;2.02;1.82;;;20.10;63.30;;;;;;935260;149;27375;-77
2022/08/24 05:08:22;;;;;;;2.50;1.90;;;20.40;63.80;;;;;;936552;150;27365;-76
2022/08/24 05:10:49;;;;;;;1.80;1.62;;;20.70;64.30;;;;;;936018;149;27299;-76
2022/08/24 05:13:15;;;;;;;2.02;1.75;;;21.00;64.30;;;;;;935948;149;27184;-77
2022/08/24 05:15:42;;;;;;;4.00;2.02;;;21.40;64.20;;;;;;935056;149;27371;-76
2022/08/24 05:18:08;;;;;;;1.70;1.60;;;21.90;64.00;;;;;;934197;148;27384;-76
2022/08/24 05:20:35;;;;;;;2.77;1.67;;;22.40;63.50;;;;;;936983;149;27265;-77
2022/08/24 05:23:01;;;;;;;1.92;1.70;;;22.80;62.70;;;;;;934534;149;27228;-77
2022/08/24 05:25:28;;;;;;;1.80;1.30;;;23.40;62.30;;;;;;934717;149;27399;-77
2022/08/24 05:27:55;;;;;;;2.05;1.60;;;24.00;61.70;;;;;;934936;149;27344;-77
2022/08/24 05:30:21;;;;;;;1.40;1.30;;;24.50;60.70;;;;;;935401;149;27261;-77
2022/08/24 05:32:48;;;;;;;1.37;1.27;;;25.10;60.00;;;;;;935960;149;27455;-77
2022/08/24 05:35:14;;;;;;;3.25;1.65;;;25.60;59.30;;;;;;935429;149;27265;-77
2022/08/24 05:37:42;;;;;;;1.60;1.30;;;26.20;58.70;;;;;;935347;149;27246;-77
2022/08/24 05:40:08;;;;;;;1.20;1.20;;;26.70;57.90;;;;;;935826;148;27264;-77
2022/08/24 05:42:34;;;;;;;1.65;1.50;;;27.30;57.40;;;;;;935698;149;27339;-77
2022/08/24 05:45:01;;;;;;;2.95;1.22;;;27.80;56.80;;;;;;934256;149;27365;-77
2022/08/24 05:47:28;;;;;;;1.82;1.27;;;28.40;56.30;;;;;;936834;149;27285;-78
2022/08/24 05:49:54;;;;;;;2.15;1.40;;;28.90;55.40;;;;;;935255;149;27218;-78
2022/08/24 05:52:21;;;;;;;1.60;1.25;;;29.60;54.80;;;;;;935836;149;27227;-77
2022/08/24 05:54:50;;;;;;;2.52;1.35;;;30.20;53.90;;;;;;934961;149;27248;-77
2022/08/24 05:57:17;;;;;;;1.65;1.55;;;30.80;53.30;;;;;;936656;149;27331;-77
2022/08/24 05:59:44;;;;;;;1.35;1.17;;;31.40;52.60;;;;;;936515;149;27405;-78
2022/08/24 06:02:10;;;;;;;2.17;1.30;;;32.00;51.80;;;;;;934231;149;27327;-78
2022/08/24 06:04:37;;;;;;;3.00;1.42;;;32.60;51.00;;;;;;935442;149;27352;-77
2022/08/24 06:07:03;;;;;;;3.75;1.50;;;33.10;50.10;;;;;;935525;149;27198;-77
2022/08/24 06:09:30;;;;;;;1.60;1.50;;;33.60;49.20;;;;;;935104;148;27441;-76
2022/08/24 06:11:58;;;;;;;4.97;1.57;;;34.10;48.20;;;;;;935792;147;27288;-78
2022/08/24 06:14:23;;;;;;;2.95;1.52;;;34.50;47.40;;;;;;934895;149;27211;-78
2022/08/24 06:16:51;;;;;;;4.08;1.67;;;34.90;46.80;;;;;;936218;149;26617;-78
2022/08/24 06:19:16;;;;;;;2.58;1.45;;;35.20;46.30;;;;;;936702;148;27736;-78
2022/08/24 06:21:43;;;;;;;1.67;1.45;;;35.50;45.90;;;;;;934245;149;26152;-78
2022/08/24 06:24:09;;;;;;;1.77;0.93;;;36.00;45.60;;;;;;937257;149;26190;-77
2022/08/24 06:29:20;;;;;;;3.22;1.37;;;36.80;44.50;;;;;;936722;149;26650;-78
2022/08/24 06:31:47;;;;;;;2.33;1.37;;;37.40;44.00;;;;;;935128;149;26180;-78
2022/08/24 06:34:13;;;;;;;1.87;1.25;;;37.80;43.30;;;;;;934723;149;26192;-78
2022/08/24 06:36:40;;;;;;;2.72;1.40;;;38.20;42.80;;;;;;935968;149;26186;-78
2022/08/24 06:39:07;;;;;;;1.95;1.75;;;38.70;41.90;;;;;;934168;149;26162;-79
2022/08/24 06:41:33;;;;;;;1.32;1.25;;;39.00;41.00;;;;;;935493;146;26214;-78
2022/08/24 06:44:00;;;;;;;2.62;1.47;;;39.30;40.40;;;;;;936443;149;26189;-78
2022/08/24 06:46:27;;;;;;;2.08;1.02;;;39.70;39.90;;;;;;934420;149;26284;-78
2022/08/24 06:48:53;;;;;;;1.70;1.30;;;39.80;39.20;;;;;;936129;149;27312;-79
2022/08/24 06:51:21;;;;;;;1.92;1.30;;;40.00;38.60;;;;;;936405;149;26281;-79
2022/08/24 06:53:46;;;;;;;1.27;1.17;;;40.10;37.90;;;;;;935360;149;26158;-79
2022/08/24 06:56:13;;;;;;;1.77;1.30;;;40.00;37.30;;;;;;936697;149;26248;-78
2022/08/24 06:58:39;;;;;;;2.12;1.25;;;40.00;37.30;;;;;;935508;149;26233;-78
2022/08/24 07:01:15;;;;;;;2.92;1.50;;;39.90;36.90;;;;;;937304;149;26365;-78
2022/08/24 07:03:42;;;;;;;1.40;1.27;;;39.80;36.30;;;;;;937635;149;26443;-78
2022/08/24 07:06:08;;;;;;;4.42;1.45;;;39.70;36.70;;;;;;938119;149;28543;-78
2022/08/24 07:08:35;;;;;;;1.60;1.30;;;39.50;36.60;;;;;;940854;149;26310;-79
2022/08/24 07:11:01;;;;;;;2.10;1.50;;;39.40;36.40;;;;;;938925;149;26330;-78
2022/08/24 07:13:29;;;;;;;1.20;1.10;;;39.30;36.50;;;;;;939781;149;27475;-78
2022/08/24 07:15:54;;;;;;;3.98;1.60;;;39.30;36.40;;;;;;939981;149;26381;-79
2022/08/24 07:18:21;;;;;;;1.98;1.10;;;39.20;36.50;;;;;;938960;149;26394;-79
2022/08/24 07:20:48;;;;;;;1.62;1.52;;;39.20;36.60;;;;;;938137;149;26276;-79
2022/08/24 07:23:15;;;;;;;2.35;1.20;;;39.30;36.70;;;;;;938746;149;26197;-79
2022/08/24 07:25:41;;;;;;;2.35;0.82;;;39.50;36.70;;;;;;938675;149;26234;-79
2022/08/24 07:28:07;;;;;;;1.10;1.00;;;39.80;36.80;;;;;;939023;149;27409;-79
2022/08/24 07:30:34;;;;;;;1.25;1.12;;;40.10;36.90;;;;;;940008;149;26301;-79
2022/08/24 07:33:01;;;;;;;3.80;1.20;;;40.50;36.10;;;;;;937863;149;26196;-79
2022/08/24 07:35:27;;;;;;;1.47;1.37;;;40.90;35.70;;;;;;937337;149;26354;-79
2022/08/24 07:37:55;;;;;;;1.70;1.35;;;41.20;35.20;;;;;;939420;149;26347;-79
2022/08/24 07:40:20;;;;;;;2.52;1.57;;;41.60;34.90;;;;;;939360;149;26371;-78
2022/08/24 07:42:47;;;;;;;2.62;1.20;;;41.90;34.50;;;;;;938229;149;26374;-79
2022/08/24 07:45:14;;;;;;;1.72;1.20;;;42.20;34.20;;;;;;939406;149;27435;-79
2022/08/24 07:47:41;;;;;;;3.62;1.15;;;42.50;33.70;;;;;;938767;149;26319;-79
2022/08/24 07:50:07;;;;;;;1.40;1.30;;;42.70;33.30;;;;;;938950;149;26382;-79
2022/08/24 07:52:33;;;;;;;3.25;1.72;;;42.90;32.90;;;;;;938895;149;26346;-79
2022/08/24 07:55:00;;;;;;;1.12;1.00;;;43.10;32.50;;;;;;939550;149;26426;-79
2022/08/24 07:57:27;;;;;;;3.02;1.30;;;43.20;32.20;;;;;;937906;149;26309;-79
2022/08/24 07:59:53;;;;;;;2.00;1.20;;;43.30;31.80;;;;;;939819;149;26309;-79
2022/08/24 08:02:20;;;;;;;1.92;1.20;;;43.30;31.70;;;;;;934997;149;26168;-79
2022/08/24 08:04:46;;;;;;;2.33;1.40;;;43.40;31.50;;;;;;936544;149;26148;-79
2022/08/24 08:07:13;;;;;;;2.58;1.17;;;43.40;31.50;;;;;;936869;149;26168;-79
2022/08/24 08:09:40;;;;;;;1.85;1.40;;;43.40;31.20;;;;;;935623;149;26240;-79
2022/08/24 08:12:06;;;;;;;2.83;1.72;;;43.40;31.10;;;;;;935972;149;26218;-79
2022/08/24 08:14:33;;;;;;;1.47;1.37;;;43.40;30.90;;;;;;934378;148;26252;-79
2022/08/24 08:16:59;;;;;;;1.50;1.37;;;43.40;30.70;;;;;;938697;151;26149;-79
2022/08/24 08:19:26;;;;;;;1.62;1.22;;;43.50;30.40;;;;;;934727;149;26174;-79
2022/08/24 08:24:37;;;;;;;1.57;1.02;;;43.50;30.20;;;;;;936621;149;28533;-79
2022/08/24 08:27:04;;;;;;;1.72;1.02;;;43.60;30.20;;;;;;935428;149;26189;-79
2022/08/24 08:29:33;;;;;;;4.03;1.12;;;43.60;29.90;;;;;;935705;149;26281;-79
2022/08/24 08:31:59;;;;;;;1.47;1.10;;;43.50;29.70;;;;;;935391;149;26185;-79
2022/08/24 08:34:26;;;;;;;1.22;1.12;;;43.40;29.70;;;;;;934571;149;26182;-79
2022/08/24 08:36:53;;;;;;;1.40;1.20;;;43.20;29.70;;;;;;935700;149;27898;-79
2022/08/24 08:39:19;;;;;;;1.90;1.37;;;43.20;29.70;;;;;;938657;149;26152;-79
2022/08/24 08:41:57;;;;;;;2.10;1.67;;;43.10;29.70;;;;;;933336;149;26294;-79
2022/08/24 08:44:33;;;;;;;2.15;1.47;;;43.10;29.80;;;;;;935786;149;26267;-79
2022/08/24 08:47:18;;;;;;;0.90;0.90;;;43.10;29.70;;;;;;935253;149;26227;-79
2022/08/24 08:50:02;;;;;;;2.25;1.57;;;43.20;29.60;;;;;;935239;149;26251;-79
2022/08/24 08:52:49;;;;;;;3.37;1.15;;;43.20;29.40;;;;;;934230;149;27886;-79
2022/08/24 08:55:33;;;;;;;1.30;1.20;;;43.10;29.40;;;;;;934754;149;26154;-79
2022/08/24 08:58:10;;;;;;;3.35;1.32;;;43.10;29.30;;;;;;933251;148;26189;-79
2022/08/24 09:01:12;;;;;;;1.62;1.30;;;43.00;29.50;;;;;;936030;149;26296;-79
2022/08/24 09:03:56;;;;;;;1.40;1.20;;;43.00;29.40;;;;;;934220;149;26534;-79
2022/08/24 09:06:59;;;;;;;7.50;1.50;;;43.00;29.40;;;;;;933198;149;26195;-79
2022/08/24 09:09:50;;;;;;;1.50;1.40;;;43.00;29.40;;;;;;934422;149;26296;-80
2022/08/24 09:12:35;;;;;;;1.62;1.17;;;43.10;29.30;;;;;;937138;148;28023;-79
2022/08/24 09:15:20;;;;;;;1.30;1.20;;;43.10;29.20;;;;;;936419;149;26210;-79
2022/08/24 09:18:08;;;;;;;1.50;1.40;;;43.10;28.90;;;;;;932637;149;26211;-79
2022/08/24 09:20:43;;;;;;;2.98;1.60;;;43.10;28.90;;;;;;936115;149;26213;-79
2022/08/24 09:23:35;;;;;;;1.92;1.12;;;43.00;29.00;;;;;;937457;149;26164;-79
2022/08/24 09:26:26;;;;;;;1.35;1.25;;;43.00;28.90;;;;;;935455;149;27716;-79
2022/08/24 09:29:10;;;;;;;2.72;1.40;;;43.10;28.90;;;;;;936655;149;26200;-79
2022/08/24 09:32:00;;;;;;;2.67;1.30;;;43.10;28.80;;;;;;934747;149;26730;-79
2022/08/24 09:34:36;;;;;;;2.50;1.82;;;43.10;28.80;;;;;;933156;148;26280;-79
2022/08/24 09:37:21;;;;;;;1.30;1.20;;;43.10;28.80;;;;;;934980;149;26172;-79
2022/08/24 09:40:00;;;;;;;2.35;1.30;;;43.10;28.50;;;;;;932838;149;26205;-80
2022/08/24 09:42:32;;;;;;;1.02;1.02;;;43.00;28.30;;;;;;933710;149;26314;-79
2022/08/24 09:44:59;;;;;;;1.17;1.07;;;42.90;28.20;;;;;;933999;149;26142;-79
2022/08/24 09:47:37;;;;;;;1.20;1.10;;;42.70;28.30;;;;;;931499;149;26193;-79
2022/08/24 09:50:04;;;;;;;1.75;1.50;;;42.60;28.40;;;;;;934573;149;26202;-79
2022/08/24 09:52:52;;;;;;;1.47;1.37;;;42.50;28.40;;;;;;933529;149;26254;-79
2022/08/24 09:55:36;;;;;;;1.45;1.35;;;42.50;28.40;;;;;;923121;149;26152;-79
2022/08/24 09:58:40;;;;;;;1.52;1.12;;;42.40;28.40;;;;;;913505;152;26309;-79
2022/08/24 10:01:09;;;;;;;1.22;0.95;;;42.30;28.40;;;;;;934698;149;26269;-79
2022/08/24 10:03:54;;;;;;;1.10;1.00;;;42.10;28.20;;;;;;933347;149;26196;-79
2022/08/24 10:06:42;;;;;;;1.30;1.17;;;41.90;28.00;;;;;;934701;148;26180;-79
2022/08/24 10:09:14;;;;;;;1.35;0.90;;;41.60;28.00;;;;;;934033;149;26284;-79
2022/08/24 10:11:44;;;;;;;1.27;1.02;;;41.30;28.10;;;;;;935216;149;26206;-79
2022/08/24 10:14:29;;;;;;;1.15;1.10;;;41.00;28.20;;;;;;936122;149;26224;-79
2022/08/24 10:17:20;;;;;;;1.50;1.40;;;40.70;28.10;;;;;;934453;149;26270;-79
2022/08/24 10:19:58;;;;;;;1.20;1.10;;;40.40;28.20;;;;;;923541;149;26161;-79
2022/08/24 10:22:56;;;;;;;2.72;1.10;;;40.10;28.50;;;;;;935032;149;27569;-79
2022/08/24 10:25:22;;;;;;;1.90;1.20;;;39.90;28.50;;;;;;934428;149;27798;-80
2022/08/24 10:27:49;;;;;;;0.93;0.90;;;39.60;28.70;;;;;;934027;150;26621;-79
2022/08/24 10:30:40;;;;;;;2.42;1.40;;;39.30;28.70;;;;;;933360;149;26277;-79
2022/08/24 10:33:21;;;;;;;1.50;1.37;;;39.10;28.80;;;;;;933920;149;27425;-79
2022/08/24 10:36:12;;;;;;;1.35;1.25;;;38.80;29.00;;;;;;934541;149;27698;-79
2022/08/24 10:41:51;;;;;;;1.30;1.20;;;38.10;29.40;;;;;;936221;149;26300;-79
2022/08/24 10:44:39;;;;;;;1.37;1.20;;;37.80;29.60;;;;;;934274;149;26112;-79
2022/08/24 10:47:14;;;;;;;1.37;1.27;;;37.70;29.90;;;;;;936239;148;27424;-79
2022/08/24 10:50:02;;;;;;;3.00;1.45;;;37.50;29.90;;;;;;935944;149;27818;-79
2022/08/24 10:52:43;;;;;;;1.35;1.25;;;37.40;30.00;;;;;;935287;149;26253;-79
2022/08/24 10:55:25;;;;;;;2.10;1.32;;;37.30;30.00;;;;;;934659;149;27288;-79
2022/08/24 10:58:03;;;;;;;1.52;1.17;;;37.20;30.10;;;;;;934303;149;27250;-79
2022/08/24 11:00:30;;;;;;;2.25;1.40;;;37.10;30.20;;;;;;936693;149;27299;-79
2022/08/24 11:03:06;;;;;;;1.20;1.10;;;37.00;30.50;;;;;;936185;149;27256;-79
2022/08/24 11:05:32;;;;;;;1.47;1.20;;;37.00;30.60;;;;;;944288;149;27396;-79
2022/08/24 11:07:59;;;;;;;1.20;1.20;;;37.00;30.80;;;;;;941393;150;27381;-79
2022/08/24 11:10:25;;;;;;;1.22;1.15;;;37.00;31.00;;;;;;941378;150;27748;-79
2022/08/24 11:12:52;;;;;;;1.22;1.12;;;37.00;30.90;;;;;;943328;150;26183;-79
2022/08/24 11:15:22;;;;;;;1.67;1.42;;;37.10;30.90;;;;;;943288;147;27190;-79
2022/08/24 11:17:57;;;;;;;1.92;1.27;;;37.10;31.00;;;;;;941334;148;27294;-79
2022/08/24 11:20:29;;;;;;;1.42;1.30;;;37.10;30.90;;;;;;944076;148;27801;-79
2022/08/24 11:22:56;;;;;;;1.30;1.20;;;37.10;31.10;;;;;;939979;150;27365;-79
2022/08/24 11:25:23;;;;;;;1.50;1.40;;;37.10;30.80;;;;;;941046;148;27248;-79
2022/08/24 11:27:49;;;;;;;2.83;1.40;;;37.10;30.80;;;;;;940746;150;27247;-79
2022/08/24 11:30:19;;;;;;;2.80;1.55;;;37.00;30.70;;;;;;941991;150;27304;-79
2022/08/24 11:32:46;;;;;;;1.92;1.42;;;37.00;30.90;;;;;;943216;150;26208;-79
2022/08/24 11:35:24;;;;;;;2.10;1.20;;;37.00;30.90;;;;;;940340;150;27262;-79
2022/08/24 11:37:51;;;;;;;1.50;1.22;;;37.00;30.70;;;;;;943325;150;27231;-79
2022/08/24 11:40:17;;;;;;;1.40;1.20;;;37.00;30.40;;;;;;942777;150;26312;-79
2022/08/24 11:43:02;;;;;;;3.70;1.52;;;37.00;30.30;;;;;;943502;150;27272;-79
2022/08/24 11:45:32;;;;;;;1.82;1.50;;;37.00;30.20;;;;;;941215;151;26365;-79
2022/08/24 11:48:13;;;;;;;2.65;1.70;;;36.90;30.00;;;;;;940176;150;27306;-79
2022/08/24 11:50:45;;;;;;;1.55;1.45;;;36.90;30.00;;;;;;943556;149;27745;-79
2022/08/24 11:53:24;;;;;;;2.08;1.50;;;36.80;30.00;;;;;;943200;150;27366;-79
2022/08/24 11:56:08;;;;;;;1.47;1.37;;;36.70;30.00;;;;;;943902;150;27723;-79
2022/08/24 11:58:47;;;;;;;2.55;1.25;;;36.60;30.00;;;;;;943529;150;27380;-79
2022/08/24 12:01:19;;;;;;;1.15;1.12;;;36.50;30.10;;;;;;929707;150;27336;-79
2022/08/24 12:04:07;;;;;;;1.47;1.37;;;36.50;30.10;;;;;;938753;149;27393;-79
2022/08/24 12:06:42;;;;;;;3.50;1.90;;;36.40;30.30;;;;;;936574;149;27315;-79
2022/08/24 12:09:20;;;;;;;1.90;1.50;;;36.30;30.20;;;;;;934863;149;27260;-79
2022/08/24 12:12:02;;;;;;;1.60;1.47;;;36.30;30.50;;;;;;936126;149;27343;-79
2022/08/24 12:14:31;;;;;;;1.50;1.40;;;36.20;30.60;;;;;;934598;149;27189;-79
2022/08/24 12:16:57;;;;;;;1.40;1.30;;;36.20;30.80;;;;;;936132;149;27272;-79
2022/08/24 12:19:24;;;;;;;1.75;1.32;;;36.20;30.80;;;;;;935443;149;27277;-79
2022/08/24 12:21:51;;;;;;;1.77;1.30;;;36.20;30.90;;;;;;934700;149;27258;-79
2022/08/24 12:24:26;;;;;;;1.32;1.00;;;36.20;31.00;;;;;;936163;149;27345;-80
2022/08/24 12:27:07;;;;;;;1.98;1.60;;;36.20;31.60;;;;;;935601;149;27310;-78
2022/08/24 12:29:49;;;;;;;2.35;1.47;;;36.30;31.30;;;;;;933969;149;27275;-78
2022/08/24 12:32:21;;;;;;;2.55;1.27;;;36.30;30.40;;;;;;936699;149;27752;-78
2022/08/24 12:34:48;;;;;;;2.40;1.45;;;36.30;30.40;;;;;;935116;149;27297;-78
2022/08/24 12:37:23;;;;;;;2.50;1.47;;;36.30;30.30;;;;;;935997;149;27221;-78
2022/08/24 12:40:03;;;;;;;1.45;1.35;;;36.30;30.30;;;;;;934291;149;27462;-78
2022/08/24 12:42:31;;;;;;;4.47;1.62;;;36.30;30.10;;;;;;934993;149;27288;-78
2022/08/24 12:45:00;;;;;;;2.40;1.75;;;36.30;30.00;;;;;;934509;149;27251;-78
2022/08/24 12:47:44;;;;;;;2.05;1.57;;;36.30;30.00;;;;;;935065;149;27402;-78
2022/08/24 12:50:29;;;;;;;1.62;1.52;;;36.30;30.00;;;;;;934330;149;27194;-78
2022/08/24 12:53:20;;;;;;;2.25;1.45;;;36.40;30.00;;;;;;935076;149;27313;-78
2022/08/24 12:56:05;;;;;;;1.65;1.50;;;36.40;30.00;;;;;;935444;149;27260;-78
2022/08/24 12:58:31;;;;;;;2.00;1.32;;;36.40;30.00;;;;;;933365;149;27688;-79
2022/08/24 13:00:58;;;;;;;3.77;1.62;;;36.50;29.70;;;;;;936078;149;26186;-78
2022/08/24 13:03:30;;;;;;;1.62;1.52;;;36.50;29.70;;;;;;936770;149;27686;-78
2022/08/24 13:05:57;;;;;;;2.47;1.45;;;36.50;29.70;;;;;;935918;149;27409;-78
2022/08/24 13:08:41;;;;;;;1.52;1.42;;;36.50;29.70;;;;;;935740;149;27265;-78
2022/08/24 13:11:23;;;;;;;1.80;1.57;;;36.50;29.60;;;;;;934568;149;27698;-78
2022/08/24 13:14:11;;;;;;;2.42;1.70;;;36.60;29.80;;;;;;935544;149;26164;-78
2022/08/24 13:16:46;;;;;;;4.10;1.52;;;36.60;29.60;;;;;;935398;149;27293;-79